createdAt,value
2022-08-20T00:02:16.559Z,8.85
2022-08-20T00:04:46.550Z,9.45
2022-08-20T00:07:15.311Z,10.95
2022-08-20T00:09:43.879Z,9.52
2022-08-20T00:12:13.750Z,9.15
2022-08-20T00:14:42.020Z,9.88
2022-08-20T00:17:10.196Z,10.60
2022-08-20T00:19:38.623Z,10.93
2022-08-20T00:22:08.245Z,9.57
2022-08-20T00:24:36.418Z,9.35
2022-08-20T00:27:04.832Z,8.95
2022-08-20T00:29:33.033Z,8.45
2022-08-20T00:32:01.630Z,8.05
2022-08-20T00:34:30.290Z,7.88
2022-08-20T00:36:58.401Z,8.02
2022-08-20T00:39:28.217Z,7.50
2022-08-20T00:41:56.305Z,6.97
2022-08-20T00:44:24.693Z,7.38
2022-08-20T00:46:54.134Z,6.68
2022-08-20T00:49:25.865Z,6.13
2022-08-20T00:51:58.698Z,6.03
2022-08-20T00:54:34.985Z,6.13
2022-08-20T00:57:12.467Z,6.15
2022-08-20T00:59:42.949Z,6.18
2022-08-20T01:02:15.151Z,6.75
2022-08-20T01:04:45.512Z,7.00
2022-08-20T01:07:13.725Z,7.28
2022-08-20T01:09:58.507Z,8.50
2022-08-20T01:12:29.519Z,8.17
2022-08-20T01:14:59.529Z,7.43
2022-08-20T01:17:32.502Z,7.60
2022-08-20T01:20:05.477Z,7.97
2022-08-20T01:22:59.148Z,7.50
2022-08-20T01:25:41.954Z,8.32
2022-08-20T01:28:11.373Z,7.68
2022-08-20T01:30:39.677Z,7.10
2022-08-20T01:33:07.848Z,7.38
2022-08-20T01:35:38.839Z,7.25
2022-08-20T01:38:08.367Z,7.05
2022-08-20T01:40:58.094Z,6.35
2022-08-20T01:43:26.784Z,6.35
2022-08-20T01:45:55.834Z,5.95
2022-08-20T01:48:24.169Z,6.95
2022-08-20T01:51:01.980Z,6.07
2022-08-20T01:53:34.712Z,6.43
2022-08-20T01:56:07.306Z,6.18
2022-08-20T01:58:38.835Z,6.32
2022-08-20T02:01:07.356Z,7.35
2022-08-20T02:03:39.741Z,6.25
2022-08-20T02:06:11.193Z,6.63
2022-08-20T02:08:39.432Z,6.10
2022-08-20T02:11:09.491Z,6.75
2022-08-20T02:13:40.876Z,5.82
2022-08-20T02:16:09.541Z,6.55
2022-08-20T02:18:37.972Z,5.93
2022-08-20T02:21:06.237Z,6.15
2022-08-20T02:23:34.479Z,6.15
2022-08-20T02:26:02.646Z,6.70
2022-08-20T02:28:32.378Z,6.82
2022-08-20T02:31:01.597Z,5.95
2022-08-20T02:33:29.959Z,6.75
2022-08-20T02:35:58.477Z,6.25
2022-08-20T02:38:26.942Z,5.90
2022-08-20T02:40:55.488Z,6.10
2022-08-20T02:43:23.696Z,6.55
2022-08-20T02:45:53.184Z,6.78
2022-08-20T02:48:23.203Z,6.65
2022-08-20T02:50:54.189Z,7.07
2022-08-20T02:53:22.511Z,7.22
2022-08-20T02:55:50.958Z,7.53
2022-08-20T02:58:20.365Z,7.05
2022-08-20T03:00:49.266Z,8.13
2022-08-20T03:03:22.729Z,9.18
2022-08-20T03:05:54.890Z,8.80
2022-08-20T03:08:24.214Z,7.68
2022-08-20T03:10:53.083Z,7.50
2022-08-20T03:13:22.925Z,7.07
2022-08-20T03:15:58.400Z,7.40
2022-08-20T03:20:58.357Z,7.43
2022-08-20T03:23:27.246Z,7.53
2022-08-20T03:25:55.763Z,8.48
2022-08-20T03:28:24.084Z,6.63
2022-08-20T03:30:53.279Z,7.07
2022-08-20T03:33:22.712Z,6.70
2022-08-20T03:35:52.464Z,6.60
2022-08-20T03:38:33.115Z,5.32
2022-08-20T03:41:02.618Z,5.25
2022-08-20T03:43:31.733Z,5.28
2022-08-20T03:46:00.471Z,4.93
2022-08-20T03:48:30.257Z,5.47
2022-08-20T03:51:01.068Z,5.55
2022-08-20T03:53:31.933Z,5.28
2022-08-20T03:56:04.465Z,5.32
2022-08-20T03:58:35.614Z,4.70
2022-08-20T04:01:06.605Z,4.60
2022-08-20T04:03:35.613Z,5.50
2022-08-20T04:06:05.642Z,4.47
2022-08-20T04:08:34.542Z,4.85
2022-08-20T04:11:03.371Z,4.53
2022-08-20T04:13:32.371Z,4.45
2022-08-20T04:16:03.607Z,4.43
2022-08-20T04:18:33.046Z,5.32
2022-08-20T04:21:01.413Z,4.57
2022-08-20T04:23:31.607Z,5.32
2022-08-20T04:26:01.443Z,5.13
2022-08-20T04:28:30.336Z,4.85
2022-08-20T04:31:01.071Z,4.78
2022-08-20T04:33:34.117Z,4.55
2022-08-20T04:36:06.359Z,5.72
2022-08-20T04:38:50.028Z,4.75
2022-08-20T04:41:22.825Z,5.30
2022-08-20T04:43:54.533Z,5.05
2022-08-20T04:46:25.804Z,4.28
2022-08-20T04:48:54.849Z,4.93
2022-08-20T04:51:24.389Z,4.30
2022-08-20T04:53:56.431Z,4.95
2022-08-20T04:56:27.572Z,3.92
2022-08-20T04:58:58.065Z,4.63
2022-08-20T05:01:27.705Z,3.88
2022-08-20T05:03:57.251Z,3.90
2022-08-20T05:06:28.786Z,4.90
2022-08-20T05:09:00.325Z,4.03
2022-08-20T05:11:34.519Z,3.97
2022-08-20T05:14:07.773Z,4.05
2022-08-20T05:16:40.829Z,3.70
2022-08-20T05:19:12.045Z,4.30
2022-08-20T05:21:41.256Z,3.88
2022-08-20T05:24:12.258Z,4.25
2022-08-20T05:26:41.087Z,3.92
2022-08-20T05:29:09.483Z,4.45
2022-08-20T05:31:38.537Z,4.40
2022-08-20T05:34:10.329Z,3.97
2022-08-20T05:36:40.805Z,4.70
2022-08-20T05:39:11.212Z,4.80
2022-08-20T05:41:40.346Z,4.65
2022-08-20T05:44:13.563Z,4.47
2022-08-20T05:46:43.603Z,4.05
2022-08-20T05:49:15.625Z,5.03
2022-08-20T05:51:44.084Z,4.70
2022-08-20T05:54:14.703Z,4.63
2022-08-20T05:56:43.332Z,5.55
2022-08-20T05:59:12.718Z,4.20
2022-08-20T06:01:42.285Z,4.70
2022-08-20T06:04:26.920Z,4.10
2022-08-20T06:06:58.208Z,4.47
2022-08-20T06:09:32.225Z,4.35
2022-08-20T06:12:02.268Z,4.32
2022-08-20T06:14:30.683Z,4.30
2022-08-20T06:17:05.462Z,4.38
2022-08-20T06:19:34.847Z,4.78
2022-08-20T06:22:18.017Z,4.45
2022-08-20T06:24:53.533Z,4.07
2022-08-20T06:27:22.403Z,3.95
2022-08-20T06:29:51.099Z,5.15
2022-08-20T06:32:21.218Z,4.88
2022-08-20T06:35:01.973Z,4.55
2022-08-20T06:37:31.926Z,4.20
2022-08-20T06:40:06.171Z,4.43
2022-08-20T06:42:34.826Z,4.20
2022-08-20T06:45:05.803Z,4.43
2022-08-20T06:47:34.833Z,4.47
2022-08-20T06:50:03.182Z,4.97
2022-08-20T06:52:52.968Z,4.80
2022-08-20T06:55:21.953Z,5.00
2022-08-20T06:57:59.384Z,5.90
2022-08-20T07:00:28.989Z,5.95
2022-08-20T07:03:00.685Z,6.57
2022-08-20T07:05:29.608Z,6.35
2022-08-20T07:07:57.936Z,5.82
2022-08-20T07:10:28.755Z,5.70
2022-08-20T07:12:57.351Z,5.72
2022-08-20T07:15:27.064Z,6.38
2022-08-20T07:18:01.524Z,6.80
2022-08-20T07:20:31.792Z,6.35
2022-08-20T07:23:00.784Z,6.80
2022-08-20T07:25:32.026Z,6.70
2022-08-20T07:28:02.789Z,7.03
2022-08-20T07:30:57.125Z,6.57
2022-08-20T07:33:28.314Z,7.28
2022-08-20T07:35:57.194Z,6.25
2022-08-20T07:38:27.256Z,6.78
2022-08-20T07:40:59.646Z,6.95
2022-08-20T07:43:28.393Z,6.15
2022-08-20T07:46:00.776Z,6.15
2022-08-20T07:48:32.124Z,6.88
2022-08-20T07:51:03.751Z,6.63
2022-08-20T07:53:35.603Z,7.88
2022-08-20T07:56:07.912Z,7.05
2022-08-20T07:58:38.447Z,6.13
2022-08-20T08:01:08.084Z,6.90
2022-08-20T08:03:48.935Z,7.80
2022-08-20T08:06:28.267Z,6.97
2022-08-20T08:09:03.106Z,6.75
2022-08-20T08:11:34.531Z,7.18
2022-08-20T08:14:04.789Z,6.57
2022-08-20T08:16:35.356Z,7.40
2022-08-20T08:19:07.819Z,6.72
2022-08-20T08:21:36.336Z,6.57
2022-08-20T08:24:05.049Z,7.57
2022-08-20T08:26:34.749Z,8.05
2022-08-20T08:29:03.555Z,8.40
2022-08-20T08:31:31.663Z,8.07
2022-08-20T08:34:00.479Z,7.57
2022-08-20T08:36:28.684Z,7.68
2022-08-20T08:38:57.208Z,7.15
2022-08-20T08:41:31.391Z,7.60
2022-08-20T08:44:11.306Z,7.47
2022-08-20T08:46:42.131Z,8.38
2022-08-20T08:49:13.736Z,7.25
2022-08-20T08:51:46.304Z,8.60
2022-08-20T08:54:17.714Z,8.82
2022-08-20T08:56:49.845Z,8.65
2022-08-20T08:59:21.408Z,7.93
2022-08-20T09:01:54.753Z,7.88
2022-08-20T09:04:31.655Z,7.30
2022-08-20T09:07:02.950Z,8.63
2022-08-20T09:09:34.238Z,9.07
2022-08-20T09:12:07.243Z,8.52
2022-08-20T09:14:37.960Z,8.63
2022-08-20T09:17:07.061Z,9.32
2022-08-20T09:19:35.503Z,8.68
2022-08-20T09:22:09.682Z,9.35
2022-08-20T09:24:38.200Z,9.68
2022-08-20T09:27:07.521Z,9.07
2022-08-20T09:29:37.313Z,11.52
2022-08-20T09:32:07.724Z,10.68
2022-08-20T09:34:39.244Z,10.75
2022-08-20T09:37:08.277Z,11.38
2022-08-20T09:39:37.408Z,12.15
2022-08-20T09:42:10.274Z,12.05
2022-08-20T09:44:40.798Z,11.95
2022-08-20T09:47:09.813Z,12.18
2022-08-20T09:49:38.436Z,11.68
2022-08-20T09:52:10.219Z,11.60
2022-08-20T09:54:46.273Z,10.68
2022-08-20T09:57:16.579Z,10.45
2022-08-20T09:59:51.530Z,10.40
2022-08-20T10:02:20.052Z,12.47
2022-08-20T10:04:48.417Z,11.43
2022-08-20T10:07:16.671Z,12.45
2022-08-20T10:09:45.020Z,11.90
2022-08-20T10:12:13.533Z,10.95
2022-08-20T10:14:42.128Z,10.82
2022-08-20T10:17:12.115Z,11.60
2022-08-20T10:19:40.439Z,11.25
2022-08-20T10:22:08.968Z,11.75
2022-08-20T10:24:37.548Z,11.13
2022-08-20T10:27:06.409Z,11.18
2022-08-20T10:29:34.714Z,11.70
2022-08-20T10:32:13.087Z,12.30
2022-08-20T10:34:41.710Z,11.57
2022-08-20T10:37:10.505Z,11.32
2022-08-20T10:39:39.096Z,12.15
2022-08-20T10:42:07.652Z,12.00
2022-08-20T10:44:35.984Z,11.35
2022-08-20T10:47:20.761Z,10.57
2022-08-20T10:49:49.761Z,10.40
2022-08-20T10:52:17.997Z,11.25
2022-08-20T10:54:46.885Z,11.80
2022-08-20T10:57:17.107Z,12.10
2022-08-20T10:59:47.572Z,11.98
2022-08-20T11:02:18.565Z,12.32
2022-08-20T11:04:47.450Z,13.32
2022-08-20T11:07:18.496Z,12.70
2022-08-20T11:09:48.839Z,11.70
2022-08-20T11:12:18.023Z,11.88
2022-08-20T11:14:46.952Z,11.60
2022-08-20T11:17:21.672Z,11.48
2022-08-20T11:19:50.285Z,10.63
2022-08-20T11:22:19.215Z,11.98
2022-08-20T11:24:48.125Z,13.57
2022-08-20T11:27:21.115Z,11.85
2022-08-20T11:29:49.705Z,10.98
2022-08-20T11:32:19.370Z,12.32
2022-08-20T11:34:47.780Z,11.43
2022-08-20T11:37:18.254Z,12.68
2022-08-20T11:39:46.748Z,12.80
2022-08-20T11:42:15.316Z,10.77
2022-08-20T11:44:43.637Z,13.07
2022-08-20T11:47:23.517Z,14.52
2022-08-20T11:49:59.640Z,16.17
2022-08-20T11:52:29.226Z,18.23
2022-08-20T11:54:57.850Z,17.67
2022-08-20T11:57:28.901Z,18.92
2022-08-20T11:59:59.270Z,20.95
2022-08-20T12:02:29.895Z,24.02
2022-08-20T12:04:58.546Z,23.17
2022-08-20T12:07:27.287Z,22.67
2022-08-20T12:09:55.803Z,21.70
2022-08-20T12:12:24.620Z,23.55
2022-08-20T12:14:53.538Z,23.67
2022-08-20T12:17:26.852Z,22.88
2022-08-20T12:19:59.370Z,23.55
2022-08-20T12:22:28.063Z,22.38
2022-08-20T12:24:56.569Z,23.30
2022-08-20T12:27:28.484Z,22.20
2022-08-20T12:29:58.749Z,24.10
2022-08-20T12:32:29.721Z,25.15
2022-08-20T12:35:00.327Z,16.35
2022-08-20T12:37:31.402Z,11.05
2022-08-20T12:40:02.129Z,17.25
2022-08-20T12:42:31.515Z,14.75
2022-08-20T12:45:00.559Z,19.38
2022-08-20T12:47:30.880Z,19.52
2022-08-20T12:50:02.203Z,23.55
2022-08-20T12:52:32.128Z,25.58
2022-08-20T12:55:01.603Z,21.30
2022-08-20T12:57:31.805Z,19.05
2022-08-20T13:00:03.628Z,26.42
2022-08-20T13:02:32.309Z,23.83
2022-08-20T13:05:04.858Z,21.33
2022-08-20T13:07:33.998Z,22.45
2022-08-20T13:10:03.123Z,20.85
2022-08-20T13:12:31.556Z,22.58
2022-08-20T13:14:59.985Z,22.55
2022-08-20T13:17:38.259Z,21.38
2022-08-20T13:20:11.819Z,19.58
2022-08-20T13:22:40.194Z,18.35
2022-08-20T13:25:10.273Z,16.52
2022-08-20T13:27:41.235Z,17.50
2022-08-20T13:30:11.963Z,14.85
2022-08-20T13:32:40.388Z,14.07
2022-08-20T13:35:11.856Z,15.40
2022-08-20T13:37:41.578Z,12.93
2022-08-20T13:40:11.177Z,9.18
2022-08-20T13:42:40.244Z,9.82
2022-08-20T13:45:10.299Z,9.48
2022-08-20T13:47:41.076Z,9.35
2022-08-20T13:50:15.242Z,8.75
2022-08-20T13:52:44.854Z,8.13
2022-08-20T13:55:20.860Z,8.55
2022-08-20T13:57:50.992Z,8.20
2022-08-20T14:00:31.053Z,7.65
2022-08-20T14:03:00.613Z,8.52
2022-08-20T14:05:31.015Z,9.35
2022-08-20T14:08:07.544Z,7.95
2022-08-20T14:10:36.356Z,8.15
2022-08-20T14:13:05.764Z,9.15
2022-08-20T14:15:34.463Z,8.70
2022-08-20T14:18:03.052Z,8.05
2022-08-20T14:20:35.263Z,8.85
2022-08-20T14:23:07.086Z,8.82
2022-08-20T14:25:35.492Z,9.23
2022-08-20T14:28:12.088Z,8.35
2022-08-20T14:30:41.119Z,7.88
2022-08-20T14:33:09.727Z,7.45
2022-08-20T14:35:40.129Z,7.68
2022-08-20T14:38:09.352Z,7.47
2022-08-20T14:40:38.062Z,6.72
2022-08-20T14:43:07.578Z,6.75
2022-08-20T14:45:35.882Z,6.60
2022-08-20T14:48:09.168Z,7.03
2022-08-20T14:50:39.715Z,6.63
2022-08-20T14:53:08.887Z,6.25
2022-08-20T14:55:38.726Z,6.50
2022-08-20T14:58:11.111Z,6.10
2022-08-20T15:00:39.762Z,6.78
2022-08-20T15:03:08.270Z,7.55
2022-08-20T15:05:39.729Z,7.30
2022-08-20T15:08:10.833Z,7.10
2022-08-20T15:10:40.053Z,6.75
2022-08-20T15:13:08.928Z,6.13
2022-08-20T15:15:37.294Z,7.10
2022-08-20T15:18:05.619Z,6.72
2022-08-20T15:20:35.716Z,7.22
2022-08-20T15:23:06.150Z,7.10
2022-08-20T15:25:37.686Z,8.15
2022-08-20T15:28:08.934Z,8.23
2022-08-20T15:30:38.968Z,8.10
2022-08-20T15:33:07.385Z,8.13
2022-08-20T15:35:35.877Z,8.85
2022-08-20T15:38:05.489Z,9.15
2022-08-20T15:40:34.513Z,8.35
2022-08-20T15:43:04.944Z,8.52
2022-08-20T15:45:34.062Z,8.98
2022-08-20T15:48:09.344Z,8.95
2022-08-20T15:51:15.848Z,9.55
2022-08-20T15:53:54.892Z,8.02
2022-08-20T15:56:35.283Z,8.38
2022-08-20T15:59:17.294Z,8.82
2022-08-20T16:01:56.255Z,9.55
2022-08-20T16:05:04.616Z,7.97
2022-08-20T16:07:40.201Z,8.82
2022-08-20T16:10:17.414Z,7.97
2022-08-20T16:12:52.037Z,7.53
2022-08-20T16:15:24.865Z,9.07
2022-08-20T16:18:00.896Z,8.50
2022-08-20T16:20:35.637Z,8.40
2022-08-20T16:23:04.808Z,8.65
2022-08-20T16:25:44.902Z,9.57
2022-08-20T16:28:24.325Z,8.57
2022-08-20T16:30:58.132Z,9.68
2022-08-20T16:33:28.948Z,9.43
2022-08-20T16:36:02.720Z,8.45
2022-08-20T16:38:41.172Z,8.82
2022-08-20T16:41:15.681Z,9.02
2022-08-20T16:43:50.082Z,9.07
2022-08-20T16:46:21.719Z,10.50
2022-08-20T16:48:56.026Z,9.75
2022-08-20T16:51:39.027Z,8.93
2022-08-20T16:54:07.537Z,9.88
2022-08-20T16:56:39.319Z,11.38
2022-08-20T16:59:11.046Z,9.05
2022-08-20T17:01:40.295Z,9.52
2022-08-20T17:04:09.368Z,9.38
2022-08-20T17:06:40.886Z,10.40
2022-08-20T17:09:11.982Z,10.73
2022-08-20T17:11:42.303Z,9.63
2022-08-20T17:14:13.671Z,11.23
2022-08-20T17:16:45.635Z,10.18
2022-08-20T17:19:20.755Z,10.30
2022-08-20T17:21:50.456Z,9.33
2022-08-20T17:24:25.551Z,8.30
2022-08-20T17:27:00.856Z,9.13
2022-08-20T17:29:31.155Z,9.45
2022-08-20T17:32:02.305Z,10.38
2022-08-20T17:34:32.869Z,10.82
2022-08-20T17:37:09.004Z,10.90
2022-08-20T17:39:46.791Z,11.00
2022-08-20T17:42:20.540Z,10.93
2022-08-20T17:44:52.589Z,10.65
2022-08-20T17:47:32.057Z,10.27
2022-08-20T17:50:05.862Z,9.80
2022-08-20T17:52:40.997Z,10.88
2022-08-20T17:55:11.991Z,10.30
2022-08-20T17:57:46.223Z,12.13
2022-08-20T18:00:23.306Z,12.15
2022-08-20T18:02:54.236Z,9.52
2022-08-20T18:05:23.044Z,10.98
2022-08-20T18:08:08.667Z,9.30
2022-08-20T18:10:43.409Z,11.77
2022-08-20T18:13:18.874Z,9.20
2022-08-20T18:15:53.908Z,10.18
2022-08-20T18:18:32.310Z,10.35
2022-08-20T18:21:31.130Z,9.75
2022-08-20T18:24:04.318Z,11.27
2022-08-20T18:26:37.942Z,10.98
2022-08-20T18:29:15.132Z,9.82
2022-08-20T18:31:46.889Z,10.63
2022-08-20T18:34:18.245Z,9.70
2022-08-20T18:36:56.879Z,9.80
2022-08-20T18:39:28.284Z,10.07
2022-08-20T18:42:00.794Z,10.27
2022-08-20T18:44:40.096Z,12.18
2022-08-20T18:47:21.830Z,10.73
2022-08-20T18:50:02.228Z,9.63
2022-08-20T18:52:32.962Z,11.77
2022-08-20T18:55:04.449Z,11.32
2022-08-20T18:57:41.338Z,11.70
2022-08-20T19:00:16.871Z,11.57
2022-08-20T19:02:56.462Z,12.15
2022-08-20T19:05:32.102Z,12.50
2022-08-20T19:08:03.615Z,13.43
2022-08-20T19:10:50.250Z,12.63
2022-08-20T19:13:42.234Z,12.68
2022-08-20T19:16:17.628Z,13.85
2022-08-20T19:18:50.638Z,16.25
2022-08-20T19:21:23.162Z,15.57
2022-08-20T19:23:57.150Z,15.25
2022-08-20T19:26:29.360Z,11.18
2022-08-20T19:29:01.561Z,6.15
2022-08-20T19:31:33.262Z,4.65
2022-08-20T19:34:07.284Z,5.80
2022-08-20T19:36:56.020Z,8.18
2022-08-20T19:39:26.651Z,11.07
2022-08-20T19:41:58.952Z,11.38
2022-08-20T19:44:33.765Z,11.48
2022-08-20T19:47:04.576Z,10.05
2022-08-20T19:49:43.223Z,11.98
2022-08-20T19:52:28.659Z,9.30
2022-08-20T19:55:03.624Z,10.05
2022-08-20T19:57:32.721Z,12.15
2022-08-20T20:00:05.736Z,10.95
2022-08-20T20:02:36.322Z,11.15
2022-08-20T20:05:07.699Z,12.13
2022-08-20T20:07:40.248Z,11.50
2022-08-20T20:10:11.777Z,9.63
2022-08-20T20:12:40.865Z,11.13
2022-08-20T20:15:09.812Z,13.50
2022-08-20T20:17:39.817Z,11.65
2022-08-20T20:20:23.401Z,13.63
2022-08-20T20:22:55.762Z,12.52
2022-08-20T20:25:37.234Z,11.93
2022-08-20T20:28:11.640Z,13.90
2022-08-20T20:30:41.556Z,11.75
2022-08-20T20:33:18.682Z,12.93
2022-08-20T20:35:47.971Z,11.13
2022-08-20T20:38:27.977Z,11.50
2022-08-20T20:40:58.296Z,12.20
2022-08-20T20:43:29.841Z,10.88
2022-08-20T20:46:03.525Z,11.18
2022-08-20T20:48:43.025Z,9.80
2022-08-20T20:51:23.151Z,10.80
2022-08-20T20:53:54.961Z,10.38
2022-08-20T20:56:28.542Z,10.02
2022-08-20T20:58:57.175Z,10.73
2022-08-20T21:01:34.504Z,10.10
2022-08-20T21:04:15.586Z,10.50
2022-08-20T21:06:44.387Z,10.00
2022-08-20T21:09:13.197Z,11.13
2022-08-20T21:11:41.427Z,11.15
2022-08-20T21:14:09.871Z,11.00
2022-08-20T21:16:38.139Z,8.85
2022-08-20T21:19:07.875Z,10.85
2022-08-20T21:21:38.383Z,10.43
2022-08-20T21:24:07.896Z,12.65
2022-08-20T21:26:36.913Z,10.13
2022-08-20T21:29:07.094Z,10.98
2022-08-20T21:31:39.714Z,10.38
2022-08-20T21:34:12.639Z,10.55
2022-08-20T21:36:43.033Z,10.98
2022-08-20T21:39:11.844Z,9.32
2022-08-20T21:41:42.687Z,10.15
2022-08-20T21:44:13.791Z,12.02
2022-08-20T21:46:43.890Z,11.35
2022-08-20T21:49:12.295Z,9.57
2022-08-20T21:51:42.090Z,11.07
2022-08-20T21:54:10.313Z,11.45
2022-08-20T21:56:39.343Z,10.25
2022-08-20T21:59:09.301Z,11.77
2022-08-20T22:01:38.779Z,11.32
2022-08-20T22:04:07.442Z,12.70
2022-08-20T22:06:35.759Z,12.05
2022-08-20T22:09:05.662Z,13.70
2022-08-20T22:11:34.605Z,12.32
2022-08-20T22:14:03.426Z,12.07
2022-08-20T22:16:31.960Z,11.90
2022-08-20T22:19:00.206Z,14.40
2022-08-20T22:21:31.854Z,13.20
2022-08-20T22:24:01.600Z,9.98
2022-08-20T22:26:32.530Z,12.90
2022-08-20T22:29:01.066Z,12.82
2022-08-20T22:31:32.662Z,11.23
2022-08-20T22:34:01.573Z,13.13
2022-08-20T22:36:30.299Z,13.00
2022-08-20T22:38:58.909Z,13.38
2022-08-20T22:41:27.301Z,12.23
2022-08-20T22:43:57.479Z,10.68
2022-08-20T22:46:27.733Z,11.45
2022-08-20T22:48:56.942Z,12.85
2022-08-20T22:51:28.943Z,10.07
2022-08-20T22:53:59.064Z,11.63
2022-08-20T22:56:30.026Z,10.80
2022-08-20T22:59:00.274Z,10.85
2022-08-20T23:01:30.396Z,11.65
2022-08-20T23:04:04.916Z,11.98
2022-08-20T23:06:33.309Z,10.35
2022-08-20T23:09:01.514Z,11.70
2022-08-20T23:11:31.450Z,9.25
2022-08-20T23:14:01.138Z,9.43
2022-08-20T23:16:29.461Z,10.00
2022-08-20T23:18:57.686Z,11.38
2022-08-20T23:21:26.584Z,12.10
2022-08-20T23:23:54.894Z,11.20
2022-08-20T23:26:23.859Z,11.40
2022-08-20T23:28:52.118Z,11.35
2022-08-20T23:31:21.958Z,12.05
2022-08-20T23:33:50.515Z,11.90
2022-08-20T23:36:21.653Z,11.20
2022-08-20T23:38:50.648Z,10.52
2022-08-20T23:41:19.705Z,14.70
2022-08-20T23:43:47.988Z,10.93
2022-08-20T23:46:16.212Z,10.98
2022-08-20T23:48:46.014Z,10.52
2022-08-20T23:51:14.308Z,10.90
2022-08-20T23:53:42.724Z,11.60
2022-08-20T23:56:10.939Z,10.43
2022-08-20T23:58:39.747Z,10.77
